sensor_id;sensor_type;location;lat;lon;timestamp;temperature;humidity
16076;DHT22;8142;48.242;11.644;2022-12-13T00:01:40;-4.50;99.90
16076;DHT22;8142;48.242;11.644;2022-12-13T00:04:06;-4.50;99.90
16076;DHT22;8142;48.242;11.644;2022-12-13T00:06:33;-4.40;99.90
16076;DHT22;8142;48.242;11.644;2022-12-13T00:09:00;-4.40;99.90
16076;DHT22;8142;48.242;11.644;2022-12-13T00:11:26;-4.40;99.90
16076;DHT22;8142;48.242;11.644;2022-12-13T00:13:53;-4.30;99.90
16076;DHT22;8142;48.242;11.644;2022-12-13T00:16:20;-4.30;99.90
16076;DHT22;8142;48.242;11.644;2022-12-13T00:18:48;-4.30;99.90
16076;DHT22;8142;48.242;11.644;2022-12-13T00:21:17;-4.30;99.90
16076;DHT22;8142;48.242;11.644;2022-12-13T00:23:44;-4.20;99.90
16076;DHT22;8142;48.242;11.644;2022-12-13T00:26:12;-4.20;99.90
16076;DHT22;8142;48.242;11.644;2022-12-13T00:28:39;-4.10;99.90
16076;DHT22;8142;48.242;11.644;2022-12-13T00:31:05;-4.10;99.90
16076;DHT22;8142;48.242;11.644;2022-12-13T00:33:31;-4.10;99.90
16076;DHT22;8142;48.242;11.644;2022-12-13T00:35:57;-4.00;99.90
16076;DHT22;8142;48.242;11.644;2022-12-13T00:38:23;-4.00;99.90
16076;DHT22;8142;48.242;11.644;2022-12-13T00:40:49;-4.00;99.90
16076;DHT22;8142;48.242;11.644;2022-12-13T00:43:16;-4.00;99.90
16076;DHT22;8142;48.242;11.644;2022-12-13T00:45:43;-3.90;99.90
16076;DHT22;8142;48.242;11.644;2022-12-13T00:48:09;-4.00;99.90
16076;DHT22;8142;48.242;11.644;2022-12-13T00:50:36;-3.90;99.90
16076;DHT22;8142;48.242;11.644;2022-12-13T00:53:03;-4.00;99.90
16076;DHT22;8142;48.242;11.644;2022-12-13T00:55:29;-4.10;99.90
16076;DHT22;8142;48.242;11.644;2022-12-13T00:57:55;-4.30;99.90
16076;DHT22;8142;48.242;11.644;2022-12-13T01:00:21;-4.40;99.90
16076;DHT22;8142;48.242;11.644;2022-12-13T01:02:47;-4.60;99.90
16076;DHT22;8142;48.242;11.644;2022-12-13T01:05:13;-4.70;99.90
16076;DHT22;8142;48.242;11.644;2022-12-13T01:07:39;-4.70;99.90
16076;DHT22;8142;48.242;11.644;2022-12-13T01:10:10;-4.90;99.90
16076;DHT22;8142;48.242;11.644;2022-12-13T01:12:36;-4.90;99.90
16076;DHT22;8142;48.242;11.644;2022-12-13T01:15:02;-4.90;99.90
16076;DHT22;8142;48.242;11.644;2022-12-13T01:17:28;-4.90;99.90
16076;DHT22;8142;48.242;11.644;2022-12-13T01:19:55;-4.90;99.90
16076;DHT22;8142;48.242;11.644;2022-12-13T01:22:21;-4.80;99.90
16076;DHT22;8142;48.242;11.644;2022-12-13T01:24:47;-4.80;99.90
16076;DHT22;8142;48.242;11.644;2022-12-13T01:27:13;-4.80;99.90
16076;DHT22;8142;48.242;11.644;2022-12-13T01:29:39;-4.70;99.90
16076;DHT22;8142;48.242;11.644;2022-12-13T01:32:05;-4.70;99.90
16076;DHT22;8142;48.242;11.644;2022-12-13T01:34:31;-4.70;99.90
16076;DHT22;8142;48.242;11.644;2022-12-13T01:36:57;-4.70;99.90
16076;DHT22;8142;48.242;11.644;2022-12-13T01:39:22;-4.70;99.90
16076;DHT22;8142;48.242;11.644;2022-12-13T01:41:51;-4.80;99.90
16076;DHT22;8142;48.242;11.644;2022-12-13T01:47:38;-4.90;99.90
16076;DHT22;8142;48.242;11.644;2022-12-13T01:50:09;-4.90;99.90
16076;DHT22;8142;48.242;11.644;2022-12-13T01:52:37;-4.90;99.90
16076;DHT22;8142;48.242;11.644;2022-12-13T01:55:05;-4.90;99.90
16076;DHT22;8142;48.242;11.644;2022-12-13T01:57:33;-4.90;99.90
16076;DHT22;8142;48.242;11.644;2022-12-13T01:59:59;-4.90;99.90
16076;DHT22;8142;48.242;11.644;2022-12-13T02:02:25;-4.80;99.90
16076;DHT22;8142;48.242;11.644;2022-12-13T02:04:56;-4.80;99.90
16076;DHT22;8142;48.242;11.644;2022-12-13T02:07:28;-4.80;99.90
16076;DHT22;8142;48.242;11.644;2022-12-13T02:09:57;-4.90;99.90
16076;DHT22;8142;48.242;11.644;2022-12-13T02:12:26;-4.90;99.90
16076;DHT22;8142;48.242;11.644;2022-12-13T02:14:52;-4.90;99.90
16076;DHT22;8142;48.242;11.644;2022-12-13T02:23:04;-4.80;99.90
16076;DHT22;8142;48.242;11.644;2022-12-13T02:31:41;-4.80;99.90
16076;DHT22;8142;48.242;11.644;2022-12-13T02:34:18;-4.90;99.90
16076;DHT22;8142;48.242;11.644;2022-12-13T02:37:00;-5.10;99.90
16076;DHT22;8142;48.242;11.644;2022-12-13T02:39:35;-5.20;99.90
16076;DHT22;8142;48.242;11.644;2022-12-13T02:42:20;-5.20;99.90
16076;DHT22;8142;48.242;11.644;2022-12-13T02:45:06;-5.20;99.90
16076;DHT22;8142;48.242;11.644;2022-12-13T02:47:33;-5.20;99.90
16076;DHT22;8142;48.242;11.644;2022-12-13T02:50:03;-5.10;99.90
16076;DHT22;8142;48.242;11.644;2022-12-13T02:52:31;-5.10;99.90
16076;DHT22;8142;48.242;11.644;2022-12-13T02:54:58;-5.00;99.90
16076;DHT22;8142;48.242;11.644;2022-12-13T02:57:30;-5.00;99.90
16076;DHT22;8142;48.242;11.644;2022-12-13T03:00:11;-4.90;99.90
16076;DHT22;8142;48.242;11.644;2022-12-13T03:02:57;-4.90;99.90
16076;DHT22;8142;48.242;11.644;2022-12-13T03:05:29;-4.90;99.90
16076;DHT22;8142;48.242;11.644;2022-12-13T03:08:20;-4.90;99.90
16076;DHT22;8142;48.242;11.644;2022-12-13T03:11:27;-4.90;99.90
16076;DHT22;8142;48.242;11.644;2022-12-13T03:13:59;-4.80;99.90
16076;DHT22;8142;48.242;11.644;2022-12-13T03:16:37;-4.90;99.90
16076;DHT22;8142;48.242;11.644;2022-12-13T03:19:08;-4.80;99.90
16076;DHT22;8142;48.242;11.644;2022-12-13T03:21:52;-4.80;99.90
16076;DHT22;8142;48.242;11.644;2022-12-13T03:24:20;-4.80;99.90
16076;DHT22;8142;48.242;11.644;2022-12-13T03:26:49;-4.80;99.90
16076;DHT22;8142;48.242;11.644;2022-12-13T03:29:17;-4.80;99.90
16076;DHT22;8142;48.242;11.644;2022-12-13T03:31:43;-4.90;99.90
16076;DHT22;8142;48.242;11.644;2022-12-13T03:34:10;-4.90;99.90
16076;DHT22;8142;48.242;11.644;2022-12-13T03:36:36;-4.90;99.90
16076;DHT22;8142;48.242;11.644;2022-12-13T03:39:02;-4.90;99.90
16076;DHT22;8142;48.242;11.644;2022-12-13T03:41:29;-4.90;99.90
16076;DHT22;8142;48.242;11.644;2022-12-13T03:44:02;-4.90;99.90
16076;DHT22;8142;48.242;11.644;2022-12-13T03:46:29;-4.90;99.90
16076;DHT22;8142;48.242;11.644;2022-12-13T03:48:55;-4.90;99.90
16076;DHT22;8142;48.242;11.644;2022-12-13T03:51:21;-4.90;99.90
16076;DHT22;8142;48.242;11.644;2022-12-13T03:53:47;-4.90;99.90
16076;DHT22;8142;48.242;11.644;2022-12-13T03:56:12;-4.90;99.90
16076;DHT22;8142;48.242;11.644;2022-12-13T03:58:38;-4.90;99.90
16076;DHT22;8142;48.242;11.644;2022-12-13T04:01:11;-4.90;99.90
16076;DHT22;8142;48.242;11.644;2022-12-13T04:03:38;-5.10;99.90
16076;DHT22;8142;48.242;11.644;2022-12-13T04:06:05;-5.40;99.90
16076;DHT22;8142;48.242;11.644;2022-12-13T04:08:32;-5.80;99.90
16076;DHT22;8142;48.242;11.644;2022-12-13T04:10:58;-6.20;99.90
16076;DHT22;8142;48.242;11.644;2022-12-13T04:13:24;-6.60;99.90
16076;DHT22;8142;48.242;11.644;2022-12-13T04:16:00;-6.90;99.90
16076;DHT22;8142;48.242;11.644;2022-12-13T04:18:26;-7.10;99.90
16076;DHT22;8142;48.242;11.644;2022-12-13T04:20:52;-7.40;99.90
16076;DHT22;8142;48.242;11.644;2022-12-13T04:23:18;-7.60;99.90
16076;DHT22;8142;48.242;11.644;2022-12-13T04:25:44;-7.80;99.90
16076;DHT22;8142;48.242;11.644;2022-12-13T04:28:10;-7.90;99.90
16076;DHT22;8142;48.242;11.644;2022-12-13T04:30:36;-8.00;99.90
16076;DHT22;8142;48.242;11.644;2022-12-13T04:33:02;-8.20;99.90
16076;DHT22;8142;48.242;11.644;2022-12-13T04:35:28;-8.30;99.90
16076;DHT22;8142;48.242;11.644;2022-12-13T04:37:54;-8.30;99.90
16076;DHT22;8142;48.242;11.644;2022-12-13T04:40:21;-8.40;99.90
16076;DHT22;8142;48.242;11.644;2022-12-13T04:42:47;-8.40;99.90
16076;DHT22;8142;48.242;11.644;2022-12-13T04:45:16;-8.50;99.90
16076;DHT22;8142;48.242;11.644;2022-12-13T04:47:42;-8.50;99.90
16076;DHT22;8142;48.242;11.644;2022-12-13T04:50:08;-8.50;99.90
16076;DHT22;8142;48.242;11.644;2022-12-13T04:52:34;-8.50;99.90
16076;DHT22;8142;48.242;11.644;2022-12-13T04:55:02;-8.60;99.90
16076;DHT22;8142;48.242;11.644;2022-12-13T04:57:28;-8.50;99.90
16076;DHT22;8142;48.242;11.644;2022-12-13T04:59:54;-8.60;99.90
16076;DHT22;8142;48.242;11.644;2022-12-13T05:02:20;-8.60;99.90
16076;DHT22;8142;48.242;11.644;2022-12-13T05:04:45;-8.60;99.90
16076;DHT22;8142;48.242;11.644;2022-12-13T05:07:11;-8.60;99.90
16076;DHT22;8142;48.242;11.644;2022-12-13T05:09:37;-8.60;99.90
16076;DHT22;8142;48.242;11.644;2022-12-13T05:12:03;-8.70;99.90
16076;DHT22;8142;48.242;11.644;2022-12-13T05:14:29;-8.70;99.90
16076;DHT22;8142;48.242;11.644;2022-12-13T05:16:56;-8.70;99.90
16076;DHT22;8142;48.242;11.644;2022-12-13T05:19:22;-8.70;99.90
16076;DHT22;8142;48.242;11.644;2022-12-13T05:21:48;-8.70;99.90
16076;DHT22;8142;48.242;11.644;2022-12-13T05:24:14;-8.60;99.90
16076;DHT22;8142;48.242;11.644;2022-12-13T05:26:40;-8.60;99.90
16076;DHT22;8142;48.242;11.644;2022-12-13T05:29:05;-8.60;99.90
16076;DHT22;8142;48.242;11.644;2022-12-13T05:31:31;-8.70;99.90
16076;DHT22;8142;48.242;11.644;2022-12-13T05:33:57;-8.70;99.90
16076;DHT22;8142;48.242;11.644;2022-12-13T05:36:23;-8.70;99.90
16076;DHT22;8142;48.242;11.644;2022-12-13T05:38:50;-8.70;99.90
16076;DHT22;8142;48.242;11.644;2022-12-13T05:41:19;-8.70;99.90
16076;DHT22;8142;48.242;11.644;2022-12-13T05:43:48;-8.70;99.90
16076;DHT22;8142;48.242;11.644;2022-12-13T05:46:14;-8.80;99.90
16076;DHT22;8142;48.242;11.644;2022-12-13T05:48:40;-8.70;99.90
16076;DHT22;8142;48.242;11.644;2022-12-13T05:51:06;-8.70;99.90
16076;DHT22;8142;48.242;11.644;2022-12-13T05:53:32;-8.70;99.90
16076;DHT22;8142;48.242;11.644;2022-12-13T05:55:59;-8.80;99.90
16076;DHT22;8142;48.242;11.644;2022-12-13T05:58:25;-8.80;99.90
16076;DHT22;8142;48.242;11.644;2022-12-13T06:00:51;-8.80;99.90
16076;DHT22;8142;48.242;11.644;2022-12-13T06:03:17;-8.70;99.90
16076;DHT22;8142;48.242;11.644;2022-12-13T06:05:42;-8.70;99.90
16076;DHT22;8142;48.242;11.644;2022-12-13T06:08:09;-8.60;99.90
16076;DHT22;8142;48.242;11.644;2022-12-13T06:10:36;-8.60;99.90
16076;DHT22;8142;48.242;11.644;2022-12-13T06:13:03;-8.70;99.90
16076;DHT22;8142;48.242;11.644;2022-12-13T06:15:30;-8.70;99.90
16076;DHT22;8142;48.242;11.644;2022-12-13T06:17:58;-8.60;99.90
16076;DHT22;8142;48.242;11.644;2022-12-13T06:20:25;-8.50;99.90
16076;DHT22;8142;48.242;11.644;2022-12-13T06:22:51;-8.30;99.90
16076;DHT22;8142;48.242;11.644;2022-12-13T06:25:18;-8.10;99.90
16076;DHT22;8142;48.242;11.644;2022-12-13T06:27:44;-7.90;99.90
16076;DHT22;8142;48.242;11.644;2022-12-13T06:30:10;-7.70;99.90
16076;DHT22;8142;48.242;11.644;2022-12-13T06:32:36;-7.60;99.90
16076;DHT22;8142;48.242;11.644;2022-12-13T06:35:02;-7.40;99.90
16076;DHT22;8142;48.242;11.644;2022-12-13T06:37:28;-7.30;99.90
16076;DHT22;8142;48.242;11.644;2022-12-13T06:39:54;-7.20;99.90
16076;DHT22;8142;48.242;11.644;2022-12-13T06:42:19;-7.00;99.90
16076;DHT22;8142;48.242;11.644;2022-12-13T06:44:45;-6.90;99.90
16076;DHT22;8142;48.242;11.644;2022-12-13T06:47:11;-6.80;99.90
16076;DHT22;8142;48.242;11.644;2022-12-13T06:49:37;-6.70;99.90
16076;DHT22;8142;48.242;11.644;2022-12-13T06:52:03;-6.60;99.90
16076;DHT22;8142;48.242;11.644;2022-12-13T06:54:29;-6.60;99.90
16076;DHT22;8142;48.242;11.644;2022-12-13T06:56:55;-6.50;99.90
16076;DHT22;8142;48.242;11.644;2022-12-13T06:59:21;-6.40;99.90
16076;DHT22;8142;48.242;11.644;2022-12-13T07:01:47;-6.40;99.90
16076;DHT22;8142;48.242;11.644;2022-12-13T07:04:13;-6.30;99.90
16076;DHT22;8142;48.242;11.644;2022-12-13T07:06:39;-6.20;99.90
16076;DHT22;8142;48.242;11.644;2022-12-13T07:09:04;-6.10;99.90
16076;DHT22;8142;48.242;11.644;2022-12-13T07:11:32;-6.10;99.90
16076;DHT22;8142;48.242;11.644;2022-12-13T07:13:58;-6.00;99.90
16076;DHT22;8142;48.242;11.644;2022-12-13T07:16:25;-5.90;99.90
16076;DHT22;8142;48.242;11.644;2022-12-13T07:18:57;-5.90;99.90
16076;DHT22;8142;48.242;11.644;2022-12-13T07:21:23;-5.80;99.90
16076;DHT22;8142;48.242;11.644;2022-12-13T07:23:49;-5.70;99.90
16076;DHT22;8142;48.242;11.644;2022-12-13T07:26:15;-5.70;99.90
16076;DHT22;8142;48.242;11.644;2022-12-13T07:28:41;-5.60;99.90
16076;DHT22;8142;48.242;11.644;2022-12-13T07:31:08;-5.50;99.90
16076;DHT22;8142;48.242;11.644;2022-12-13T07:33:35;-5.50;99.90
16076;DHT22;8142;48.242;11.644;2022-12-13T07:36:11;-5.40;99.90
16076;DHT22;8142;48.242;11.644;2022-12-13T07:38:38;-5.40;99.90
16076;DHT22;8142;48.242;11.644;2022-12-13T07:41:04;-5.20;99.90
16076;DHT22;8142;48.242;11.644;2022-12-13T07:43:31;-5.30;99.90
16076;DHT22;8142;48.242;11.644;2022-12-13T07:45:58;-5.20;99.90
16076;DHT22;8142;48.242;11.644;2022-12-13T07:48:25;-5.10;99.90
16076;DHT22;8142;48.242;11.644;2022-12-13T07:50:52;-5.10;99.90
16076;DHT22;8142;48.242;11.644;2022-12-13T07:53:18;-5.00;99.90
16076;DHT22;8142;48.242;11.644;2022-12-13T07:55:43;-4.90;99.90
16076;DHT22;8142;48.242;11.644;2022-12-13T07:58:11;-4.90;99.90
16076;DHT22;8142;48.242;11.644;2022-12-13T08:00:43;-4.80;99.90
16076;DHT22;8142;48.242;11.644;2022-12-13T08:03:09;-4.80;99.90
16076;DHT22;8142;48.242;11.644;2022-12-13T08:05:35;-4.70;99.90
16076;DHT22;8142;48.242;11.644;2022-12-13T08:08:03;-4.60;99.90
16076;DHT22;8142;48.242;11.644;2022-12-13T08:10:29;-4.60;99.90
16076;DHT22;8142;48.242;11.644;2022-12-13T08:12:55;-4.60;99.90
16076;DHT22;8142;48.242;11.644;2022-12-13T08:15:21;-4.60;99.90
16076;DHT22;8142;48.242;11.644;2022-12-13T08:17:47;-4.50;99.90
16076;DHT22;8142;48.242;11.644;2022-12-13T08:20:13;-4.50;99.90
16076;DHT22;8142;48.242;11.644;2022-12-13T08:22:39;-4.50;99.90
16076;DHT22;8142;48.242;11.644;2022-12-13T08:25:06;-4.50;99.90
16076;DHT22;8142;48.242;11.644;2022-12-13T08:27:32;-4.50;99.90
16076;DHT22;8142;48.242;11.644;2022-12-13T08:29:58;-4.50;99.90
16076;DHT22;8142;48.242;11.644;2022-12-13T08:32:24;-4.40;99.90
16076;DHT22;8142;48.242;11.644;2022-12-13T08:34:50;-4.40;99.90
16076;DHT22;8142;48.242;11.644;2022-12-13T08:37:16;-4.40;99.90
16076;DHT22;8142;48.242;11.644;2022-12-13T08:39:42;-4.40;99.90
16076;DHT22;8142;48.242;11.644;2022-12-13T08:42:11;-4.40;99.90
16076;DHT22;8142;48.242;11.644;2022-12-13T08:44:41;-4.40;99.90
16076;DHT22;8142;48.242;11.644;2022-12-13T08:47:07;-4.30;99.90
16076;DHT22;8142;48.242;11.644;2022-12-13T08:49:33;-4.30;99.90
16076;DHT22;8142;48.242;11.644;2022-12-13T08:51:59;-4.30;99.90
16076;DHT22;8142;48.242;11.644;2022-12-13T08:54:25;-4.30;99.90
16076;DHT22;8142;48.242;11.644;2022-12-13T08:56:51;-4.30;99.90
16076;DHT22;8142;48.242;11.644;2022-12-13T08:59:17;-4.30;99.90
16076;DHT22;8142;48.242;11.644;2022-12-13T09:01:43;-4.30;99.90
16076;DHT22;8142;48.242;11.644;2022-12-13T09:04:09;-4.30;99.90
16076;DHT22;8142;48.242;11.644;2022-12-13T09:06:35;-4.30;99.90
16076;DHT22;8142;48.242;11.644;2022-12-13T09:09:02;-4.40;99.90
16076;DHT22;8142;48.242;11.644;2022-12-13T09:11:34;-4.30;99.90
16076;DHT22;8142;48.242;11.644;2022-12-13T09:14:00;-4.30;99.90
16076;DHT22;8142;48.242;11.644;2022-12-13T09:16:26;-4.30;99.90
16076;DHT22;8142;48.242;11.644;2022-12-13T09:18:52;-4.30;99.90
16076;DHT22;8142;48.242;11.644;2022-12-13T09:21:18;-4.30;99.90
16076;DHT22;8142;48.242;11.644;2022-12-13T09:23:45;-4.40;99.90
16076;DHT22;8142;48.242;11.644;2022-12-13T09:26:12;-4.40;99.90
16076;DHT22;8142;48.242;11.644;2022-12-13T09:28:39;-4.40;99.90
16076;DHT22;8142;48.242;11.644;2022-12-13T09:31:15;-4.30;99.90
16076;DHT22;8142;48.242;11.644;2022-12-13T09:33:42;-4.30;99.90
16076;DHT22;8142;48.242;11.644;2022-12-13T09:36:15;-4.40;99.90
16076;DHT22;8142;48.242;11.644;2022-12-13T09:38:42;-4.40;99.90
16076;DHT22;8142;48.242;11.644;2022-12-13T09:41:19;-4.40;99.90
16076;DHT22;8142;48.242;11.644;2022-12-13T09:43:51;-4.40;99.90
16076;DHT22;8142;48.242;11.644;2022-12-13T09:48:52;-4.40;99.90
16076;DHT22;8142;48.242;11.644;2022-12-13T09:51:18;-4.50;99.90
16076;DHT22;8142;48.242;11.644;2022-12-13T09:53:47;-4.40;99.90
16076;DHT22;8142;48.242;11.644;2022-12-13T09:56:20;-4.50;99.90
16076;DHT22;8142;48.242;11.644;2022-12-13T09:58:48;-4.40;99.90
16076;DHT22;8142;48.242;11.644;2022-12-13T10:01:15;-4.50;99.90
16076;DHT22;8142;48.242;11.644;2022-12-13T10:03:45;-4.50;99.90
16076;DHT22;8142;48.242;11.644;2022-12-13T10:06:17;-4.50;99.90
16076;DHT22;8142;48.242;11.644;2022-12-13T10:08:54;-4.50;99.90
16076;DHT22;8142;48.242;11.644;2022-12-13T10:11:21;-4.50;99.90
16076;DHT22;8142;48.242;11.644;2022-12-13T10:13:55;-4.50;99.90
16076;DHT22;8142;48.242;11.644;2022-12-13T10:22:13;-4.40;99.90
16076;DHT22;8142;48.242;11.644;2022-12-13T10:24:57;-4.30;99.90
16076;DHT22;8142;48.242;11.644;2022-12-13T10:27:34;-4.30;99.90
16076;DHT22;8142;48.242;11.644;2022-12-13T10:32:31;-4.30;99.90
16076;DHT22;8142;48.242;11.644;2022-12-13T10:34:59;-4.30;99.90
16076;DHT22;8142;48.242;11.644;2022-12-13T10:37:36;-4.30;99.90
16076;DHT22;8142;48.242;11.644;2022-12-13T10:40:03;-4.20;99.90
16076;DHT22;8142;48.242;11.644;2022-12-13T10:42:28;-4.20;99.90
16076;DHT22;8142;48.242;11.644;2022-12-13T10:45:13;-4.20;99.90
16076;DHT22;8142;48.242;11.644;2022-12-13T10:47:42;-4.00;99.90
16076;DHT22;8142;48.242;11.644;2022-12-13T10:50:24;-4.00;99.90
16076;DHT22;8142;48.242;11.644;2022-12-13T10:52:51;-4.00;99.90
16076;DHT22;8142;48.242;11.644;2022-12-13T10:55:32;-4.00;99.90
16076;DHT22;8142;48.242;11.644;2022-12-13T10:58:02;-3.90;99.90
16076;DHT22;8142;48.242;11.644;2022-12-13T11:00:41;-3.90;99.90
16076;DHT22;8142;48.242;11.644;2022-12-13T11:03:11;-3.90;99.90
16076;DHT22;8142;48.242;11.644;2022-12-13T11:05:37;-3.80;99.90
16076;DHT22;8142;48.242;11.644;2022-12-13T11:08:31;-3.80;99.90
16076;DHT22;8142;48.242;11.644;2022-12-13T11:11:02;-3.80;99.90
16076;DHT22;8142;48.242;11.644;2022-12-13T11:16:02;-3.70;99.90
16076;DHT22;8142;48.242;11.644;2022-12-13T11:18:34;-3.70;99.90
16076;DHT22;8142;48.242;11.644;2022-12-13T11:21:02;-3.70;99.90
16076;DHT22;8142;48.242;11.644;2022-12-13T11:23:37;-3.70;99.90
16076;DHT22;8142;48.242;11.644;2022-12-13T11:26:08;-3.70;99.90
16076;DHT22;8142;48.242;11.644;2022-12-13T11:39:30;-3.80;99.90
16076;DHT22;8142;48.242;11.644;2022-12-13T11:42:07;-3.80;99.90
16076;DHT22;8142;48.242;11.644;2022-12-13T11:44:57;-3.80;99.90
16076;DHT22;8142;48.242;11.644;2022-12-13T11:47:31;-3.80;99.90
16076;DHT22;8142;48.242;11.644;2022-12-13T11:50:00;-3.80;99.90
16076;DHT22;8142;48.242;11.644;2022-12-13T11:52:47;-3.70;99.90
16076;DHT22;8142;48.242;11.644;2022-12-13T11:58:03;-3.70;99.90
16076;DHT22;8142;48.242;11.644;2022-12-13T12:01:28;-3.60;99.90
16076;DHT22;8142;48.242;11.644;2022-12-13T12:03:50;-3.50;99.90
16076;DHT22;8142;48.242;11.644;2022-12-13T12:06:28;-3.50;99.90
16076;DHT22;8142;48.242;11.644;2022-12-13T12:09:03;-3.40;99.90
16076;DHT22;8142;48.242;11.644;2022-12-13T12:11:57;-3.20;99.90
16076;DHT22;8142;48.242;11.644;2022-12-13T12:14:40;-3.30;99.90
16076;DHT22;8142;48.242;11.644;2022-12-13T12:17:12;-3.30;99.90
16076;DHT22;8142;48.242;11.644;2022-12-13T12:19:40;-3.40;99.90
16076;DHT22;8142;48.242;11.644;2022-12-13T12:22:30;-3.40;99.90
16076;DHT22;8142;48.242;11.644;2022-12-13T12:25:25;-3.30;99.90
16076;DHT22;8142;48.242;11.644;2022-12-13T12:45:43;-3.20;99.90
16076;DHT22;8142;48.242;11.644;2022-12-13T12:48:24;-3.20;99.90
16076;DHT22;8142;48.242;11.644;2022-12-13T12:51:06;-3.20;99.90
16076;DHT22;8142;48.242;11.644;2022-12-13T12:53:53;-3.10;99.90
16076;DHT22;8142;48.242;11.644;2022-12-13T12:56:29;-3.10;99.90
16076;DHT22;8142;48.242;11.644;2022-12-13T13:02:13;-3.10;99.90
16076;DHT22;8142;48.242;11.644;2022-12-13T13:07:53;-3.10;99.90
16076;DHT22;8142;48.242;11.644;2022-12-13T13:10:21;-3.10;99.90
16076;DHT22;8142;48.242;11.644;2022-12-13T13:12:47;-3.10;99.90
16076;DHT22;8142;48.242;11.644;2022-12-13T13:17:59;-3.10;99.90
16076;DHT22;8142;48.242;11.644;2022-12-13T13:20:26;-3.10;99.90
16076;DHT22;8142;48.242;11.644;2022-12-13T13:22:54;-3.10;99.90
16076;DHT22;8142;48.242;11.644;2022-12-13T13:25:27;-3.00;99.90
16076;DHT22;8142;48.242;11.644;2022-12-13T13:30:37;-3.00;99.90
16076;DHT22;8142;48.242;11.644;2022-12-13T13:33:03;-3.00;99.90
16076;DHT22;8142;48.242;11.644;2022-12-13T13:35:48;-2.90;99.90
16076;DHT22;8142;48.242;11.644;2022-12-13T13:40:40;-2.90;99.90
16076;DHT22;8142;48.242;11.644;2022-12-13T13:46:09;-2.80;99.90
16076;DHT22;8142;48.242;11.644;2022-12-13T13:54:34;-2.80;99.90
16076;DHT22;8142;48.242;11.644;2022-12-13T13:57:17;-2.80;99.90
16076;DHT22;8142;48.242;11.644;2022-12-13T14:11:08;-2.70;99.90
16076;DHT22;8142;48.242;11.644;2022-12-13T14:20:06;-2.70;99.90
16076;DHT22;8142;48.242;11.644;2022-12-13T14:30:46;-2.70;99.90
16076;DHT22;8142;48.242;11.644;2022-12-13T14:33:19;-2.70;99.90
16076;DHT22;8142;48.242;11.644;2022-12-13T14:35:53;-2.70;99.90
16076;DHT22;8142;48.242;11.644;2022-12-13T14:38:23;-2.70;99.90
16076;DHT22;8142;48.242;11.644;2022-12-13T14:40:52;-2.70;99.90
16076;DHT22;8142;48.242;11.644;2022-12-13T14:43:33;-2.70;99.90
16076;DHT22;8142;48.242;11.644;2022-12-13T14:46:02;-2.70;99.90
16076;DHT22;8142;48.242;11.644;2022-12-13T14:48:33;-2.70;99.90
16076;DHT22;8142;48.242;11.644;2022-12-13T14:51:00;-2.70;99.90
16076;DHT22;8142;48.242;11.644;2022-12-13T14:53:39;-2.70;99.90
16076;DHT22;8142;48.242;11.644;2022-12-13T14:56:08;-2.60;99.90
16076;DHT22;8142;48.242;11.644;2022-12-13T14:58:35;-2.60;99.90
16076;DHT22;8142;48.242;11.644;2022-12-13T15:01:06;-2.60;99.90
16076;DHT22;8142;48.242;11.644;2022-12-13T15:03:48;-2.60;99.90
16076;DHT22;8142;48.242;11.644;2022-12-13T15:06:16;-2.60;99.90
16076;DHT22;8142;48.242;11.644;2022-12-13T15:08:43;-2.60;99.90
16076;DHT22;8142;48.242;11.644;2022-12-13T15:11:09;-2.60;99.90
16076;DHT22;8142;48.242;11.644;2022-12-13T15:13:43;-2.60;99.90
16076;DHT22;8142;48.242;11.644;2022-12-13T15:16:22;-2.60;99.90
16076;DHT22;8142;48.242;11.644;2022-12-13T15:18:48;-2.60;99.90
16076;DHT22;8142;48.242;11.644;2022-12-13T15:21:23;-2.60;99.90
16076;DHT22;8142;48.242;11.644;2022-12-13T15:23:50;-2.60;99.90
16076;DHT22;8142;48.242;11.644;2022-12-13T15:26:21;-2.60;99.90
16076;DHT22;8142;48.242;11.644;2022-12-13T15:28:53;-2.60;99.90
16076;DHT22;8142;48.242;11.644;2022-12-13T15:31:20;-2.60;99.90
16076;DHT22;8142;48.242;11.644;2022-12-13T15:33:46;-2.50;99.90
16076;DHT22;8142;48.242;11.644;2022-12-13T15:41:28;-2.50;99.90
16076;DHT22;8142;48.242;11.644;2022-12-13T15:44:18;-2.50;99.90
16076;DHT22;8142;48.242;11.644;2022-12-13T15:46:47;-2.50;99.90
16076;DHT22;8142;48.242;11.644;2022-12-13T15:49:26;-2.50;99.90
16076;DHT22;8142;48.242;11.644;2022-12-13T15:54:32;-2.50;99.90
16076;DHT22;8142;48.242;11.644;2022-12-13T15:59:34;-2.50;99.90
16076;DHT22;8142;48.242;11.644;2022-12-13T16:02:01;-2.50;99.90
16076;DHT22;8142;48.242;11.644;2022-12-13T16:04:31;-2.70;99.90
16076;DHT22;8142;48.242;11.644;2022-12-13T16:06:58;-2.90;99.90
16076;DHT22;8142;48.242;11.644;2022-12-13T16:09:29;-3.20;99.90
16076;DHT22;8142;48.242;11.644;2022-12-13T16:12:00;-3.40;99.90
16076;DHT22;8142;48.242;11.644;2022-12-13T16:19:59;-4.00;99.90
16076;DHT22;8142;48.242;11.644;2022-12-13T16:22:25;-4.10;99.90
16076;DHT22;8142;48.242;11.644;2022-12-13T16:24:51;-4.30;99.90
16076;DHT22;8142;48.242;11.644;2022-12-13T16:27:17;-4.40;99.90
16076;DHT22;8142;48.242;11.644;2022-12-13T16:29:43;-4.50;99.90
16076;DHT22;8142;48.242;11.644;2022-12-13T16:32:09;-4.60;99.90
16076;DHT22;8142;48.242;11.644;2022-12-13T16:34:36;-4.60;99.90
16076;DHT22;8142;48.242;11.644;2022-12-13T16:37:03;-4.70;99.90
16076;DHT22;8142;48.242;11.644;2022-12-13T16:39:28;-4.70;99.90
16076;DHT22;8142;48.242;11.644;2022-12-13T16:41:54;-4.80;99.90
16076;DHT22;8142;48.242;11.644;2022-12-13T16:44:35;-4.90;99.90
16076;DHT22;8142;48.242;11.644;2022-12-13T16:47:02;-4.90;99.90
16076;DHT22;8142;48.242;11.644;2022-12-13T16:49:31;-4.90;99.90
16076;DHT22;8142;48.242;11.644;2022-12-13T16:51:57;-5.00;99.90
16076;DHT22;8142;48.242;11.644;2022-12-13T16:54:24;-5.00;99.90
16076;DHT22;8142;48.242;11.644;2022-12-13T16:56:52;-5.00;99.90
16076;DHT22;8142;48.242;11.644;2022-12-13T16:59:21;-5.00;99.90
16076;DHT22;8142;48.242;11.644;2022-12-13T17:01:47;-5.10;99.90
16076;DHT22;8142;48.242;11.644;2022-12-13T17:04:16;-5.00;99.90
16076;DHT22;8142;48.242;11.644;2022-12-13T17:06:43;-5.10;99.90
16076;DHT22;8142;48.242;11.644;2022-12-13T17:09:09;-5.10;99.90
16076;DHT22;8142;48.242;11.644;2022-12-13T17:11:36;-5.10;99.90
16076;DHT22;8142;48.242;11.644;2022-12-13T17:14:03;-5.10;99.90
16076;DHT22;8142;48.242;11.644;2022-12-13T17:16:29;-5.10;99.90
16076;DHT22;8142;48.242;11.644;2022-12-13T17:18:56;-5.20;99.90
16076;DHT22;8142;48.242;11.644;2022-12-13T17:21:26;-5.20;99.90
16076;DHT22;8142;48.242;11.644;2022-12-13T17:23:54;-5.20;99.90
16076;DHT22;8142;48.242;11.644;2022-12-13T17:26:20;-5.20;99.90
16076;DHT22;8142;48.242;11.644;2022-12-13T17:28:46;-5.20;99.90
16076;DHT22;8142;48.242;11.644;2022-12-13T17:31:12;-5.20;99.90
16076;DHT22;8142;48.242;11.644;2022-12-13T17:33:40;-5.30;99.90
16076;DHT22;8142;48.242;11.644;2022-12-13T17:36:07;-5.30;99.90
16076;DHT22;8142;48.242;11.644;2022-12-13T17:38:34;-5.30;99.90
16076;DHT22;8142;48.242;11.644;2022-12-13T17:41:00;-5.30;99.90
16076;DHT22;8142;48.242;11.644;2022-12-13T17:43:26;-5.30;99.90
16076;DHT22;8142;48.242;11.644;2022-12-13T17:46:00;-5.20;99.90
16076;DHT22;8142;48.242;11.644;2022-12-13T17:48:27;-5.30;99.90